Time;durP1;ratioP1;P1;durP2;ratioP2;P2;SDS_P1;SDS_P2;PMS_P1;PMS_P2;Temp;Humidity;BMP_temperature;BMP_pressure;BME280_temperature;BME280_humidity;BME280_pressure;Samples;Min_cycle;Max_cycle;Signal;HPM_P1;HPM_P2
2021/08/21 00:01:11;;;;;;;0.00;0.00;;;23.80;56.80;;;;;;5062858;28;20220;-66
2021/08/21 00:03:38;;;;;;;0.03;0.03;;;23.80;56.90;;;;;;5072237;28;20216;-66
2021/08/21 00:06:05;;;;;;;0.00;0.00;;;23.80;56.90;;;;;;5064551;28;20241;-66
2021/08/21 00:08:32;;;;;;;0.00;0.00;;;23.80;56.90;;;;;;5062509;28;20217;-66
2021/08/21 00:10:59;;;;;;;0.10;0.10;;;23.80;57.00;;;;;;5061263;28;20214;-66
2021/08/21 00:13:27;;;;;;;0.00;0.00;;;23.80;57.20;;;;;;5064181;28;20270;-66
2021/08/21 00:15:54;;;;;;;0.00;0.00;;;23.70;57.40;;;;;;5063453;28;20590;-66
2021/08/21 00:18:21;;;;;;;0.43;0.43;;;23.70;57.70;;;;;;5061703;28;20392;-66
2021/08/21 00:20:49;;;;;;;0.10;0.10;;;23.60;57.50;;;;;;5063315;28;20241;-66
2021/08/21 00:23:16;;;;;;;0.27;0.27;;;23.50;57.40;;;;;;5063621;28;20209;-66
2021/08/21 00:25:43;;;;;;;0.00;0.00;;;23.50;57.50;;;;;;5061421;28;20680;-66
2021/08/21 00:28:10;;;;;;;0.20;0.20;;;23.50;57.50;;;;;;5063289;28;20232;-66
2021/08/21 00:30:37;;;;;;;0.00;0.00;;;23.50;57.50;;;;;;5063210;28;20214;-66
2021/08/21 00:33:04;;;;;;;0.00;0.00;;;23.50;57.60;;;;;;5061160;28;20567;-66
2021/08/21 00:35:32;;;;;;;0.00;0.00;;;23.50;57.70;;;;;;5062760;28;20214;-66
2021/08/21 00:37:59;;;;;;;0.00;0.00;;;23.50;57.90;;;;;;5063689;28;20217;-66
2021/08/21 00:40:26;;;;;;;0.00;0.00;;;23.40;58.00;;;;;;5060933;28;20229;-66
2021/08/21 00:42:54;;;;;;;0.10;0.10;;;23.40;58.20;;;;;;5063014;28;20225;-66
2021/08/21 00:45:21;;;;;;;0.10;0.10;;;23.40;58.40;;;;;;5063364;28;20631;-66
2021/08/21 00:47:49;;;;;;;0.00;0.00;;;23.30;58.40;;;;;;5063711;28;20214;-66
2021/08/21 00:50:17;;;;;;;0.00;0.00;;;23.40;58.40;;;;;;5062775;28;20214;-66
2021/08/21 00:52:44;;;;;;;0.00;0.00;;;23.30;58.40;;;;;;5060859;28;20225;-66
2021/08/21 00:55:11;;;;;;;0.00;0.00;;;23.30;58.50;;;;;;5063289;28;20221;-66
2021/08/21 00:57:38;;;;;;;0.10;0.10;;;23.30;58.70;;;;;;5062380;28;20597;-66
2021/08/21 01:00:07;;;;;;;0.00;0.00;;;23.30;58.80;;;;;;5060736;28;20726;-66
2021/08/21 01:02:35;;;;;;;0.00;0.00;;;23.30;58.90;;;;;;5069225;28;20248;-66
2021/08/21 01:05:06;;;;;;;0.00;0.00;;;23.20;59.00;;;;;;5063137;28;20235;-66
2021/08/21 01:07:35;;;;;;;0.00;0.00;;;23.20;59.20;;;;;;5063322;28;20214;-66
2021/08/21 01:10:09;;;;;;;0.10;0.10;;;23.10;59.30;;;;;;5060823;28;20682;-66
2021/08/21 01:12:36;;;;;;;0.00;0.00;;;23.10;59.50;;;;;;5052244;28;20218;-66
2021/08/21 01:15:05;;;;;;;0.10;0.10;;;23.10;59.70;;;;;;5057736;28;20210;-66
2021/08/21 01:17:32;;;;;;;0.10;0.10;;;23.10;60.30;;;;;;5055583;28;20271;-66
2021/08/21 01:19:59;;;;;;;0.07;0.07;;;23.00;60.50;;;;;;5060897;28;20676;-66
2021/08/21 01:22:27;;;;;;;0.00;0.00;;;22.90;60.70;;;;;;5061611;28;20268;-66
2021/08/21 01:24:55;;;;;;;0.00;0.00;;;22.80;61.00;;;;;;5063502;28;20213;-66
2021/08/21 01:27:25;;;;;;;0.00;0.00;;;22.70;61.00;;;;;;5061346;28;20214;-66
2021/08/21 01:29:53;;;;;;;0.10;0.10;;;22.70;60.80;;;;;;5060638;28;20218;-66
2021/08/21 01:32:22;;;;;;;0.10;0.10;;;22.70;60.60;;;;;;5064493;28;20761;-66
2021/08/21 01:34:50;;;;;;;0.00;0.00;;;22.60;60.30;;;;;;5068426;28;20594;-66
2021/08/21 01:37:17;;;;;;;0.00;0.00;;;22.60;60.30;;;;;;5061175;28;20323;-66
2021/08/21 01:39:47;;;;;;;0.10;0.10;;;22.50;60.30;;;;;;5061030;28;20542;-66
2021/08/21 01:42:14;;;;;;;0.63;0.40;;;22.50;60.70;;;;;;5062829;28;20214;-66
2021/08/21 01:44:41;;;;;;;0.00;0.00;;;22.40;60.70;;;;;;5060141;28;20704;-66
2021/08/21 01:47:12;;;;;;;0.00;0.00;;;22.40;60.90;;;;;;5061489;28;20217;-66
2021/08/21 01:49:49;;;;;;;0.10;0.10;;;22.40;61.00;;;;;;5062882;28;20221;-66
2021/08/21 01:52:16;;;;;;;0.00;0.00;;;22.40;61.00;;;;;;5067542;28;20222;-66
2021/08/21 01:54:43;;;;;;;0.40;0.40;;;22.40;61.20;;;;;;5062800;28;20217;-66
2021/08/21 01:57:10;;;;;;;0.00;0.00;;;22.40;61.30;;;;;;5060615;28;20218;-66
2021/08/21 01:59:45;;;;;;;0.00;0.00;;;22.30;61.50;;;;;;5060153;28;20234;-66
2021/08/21 02:02:18;;;;;;;0.00;0.00;;;22.30;61.60;;;;;;5065166;28;20217;-66
2021/08/21 02:04:45;;;;;;;0.13;0.13;;;22.30;61.80;;;;;;5059285;28;20291;-66
2021/08/21 02:07:12;;;;;;;0.00;0.00;;;22.20;62.00;;;;;;5060570;28;20207;-66
2021/08/21 02:09:39;;;;;;;0.00;0.00;;;22.20;62.10;;;;;;5063813;28;20222;-66
2021/08/21 02:12:07;;;;;;;0.00;0.00;;;22.20;62.20;;;;;;5059993;28;20543;-69
2021/08/21 02:14:34;;;;;;;0.10;0.10;;;22.10;62.30;;;;;;5061313;28;20214;-69
2021/08/21 02:17:03;;;;;;;0.00;0.00;;;22.10;62.40;;;;;;5061430;28;20213;-69
2021/08/21 02:19:30;;;;;;;0.00;0.00;;;22.10;62.60;;;;;;5060394;28;20242;-69
2021/08/21 02:21:59;;;;;;;0.10;0.10;;;22.10;62.60;;;;;;5061836;28;20287;-69
2021/08/21 02:24:27;;;;;;;0.00;0.00;;;22.10;63.00;;;;;;5062396;28;20213;-69
2021/08/21 02:26:57;;;;;;;1.23;0.87;;;22.00;63.10;;;;;;5058676;28;20210;-69
2021/08/21 02:29:25;;;;;;;0.00;0.00;;;22.00;63.30;;;;;;5061212;28;20222;-69
2021/08/21 02:31:55;;;;;;;0.00;0.00;;;21.90;63.30;;;;;;5063726;28;20221;-69
2021/08/21 02:34:28;;;;;;;0.00;0.00;;;21.90;63.50;;;;;;5072600;28;20214;-69
2021/08/21 02:36:55;;;;;;;0.13;0.13;;;21.90;63.60;;;;;;5063071;28;20214;-70
2021/08/21 02:39:22;;;;;;;0.00;0.00;;;21.90;63.80;;;;;;5083563;28;20751;-70
2021/08/21 02:41:49;;;;;;;0.00;0.00;;;21.90;64.10;;;;;;5068839;28;20236;-70
2021/08/21 02:44:16;;;;;;;0.10;0.10;;;21.90;64.20;;;;;;5066770;28;20287;-70
2021/08/21 02:46:43;;;;;;;0.00;0.00;;;21.90;64.30;;;;;;5067422;28;20636;-70
2021/08/21 02:49:10;;;;;;;0.10;0.10;;;21.80;64.70;;;;;;5064153;28;20252;-70
2021/08/21 02:51:37;;;;;;;0.00;0.00;;;21.70;65.20;;;;;;5065766;28;20279;-70
2021/08/21 02:54:04;;;;;;;0.00;0.00;;;21.70;65.40;;;;;;5063935;28;20206;-70
2021/08/21 02:56:31;;;;;;;0.10;0.10;;;21.60;66.00;;;;;;5065170;28;20248;-70
2021/08/21 02:58:58;;;;;;;0.00;0.00;;;21.50;65.80;;;;;;5066122;28;20217;-70
2021/08/21 03:01:26;;;;;;;0.10;0.10;;;21.50;65.90;;;;;;5063681;28;20303;-70
2021/08/21 03:03:54;;;;;;;0.10;0.10;;;21.50;66.10;;;;;;5064082;28;20230;-70
2021/08/21 03:06:23;;;;;;;0.30;0.30;;;21.40;66.10;;;;;;5065818;28;20259;-70
2021/08/21 03:08:50;;;;;;;0.00;0.00;;;21.50;65.80;;;;;;5072517;28;20218;-70
2021/08/21 03:11:17;;;;;;;0.10;0.10;;;21.40;65.60;;;;;;5061593;28;20248;-70
2021/08/21 03:13:44;;;;;;;0.00;0.00;;;21.40;65.40;;;;;;5071460;28;20219;-70
2021/08/21 03:16:11;;;;;;;1.40;0.33;;;21.40;65.20;;;;;;5063956;28;20579;-70
2021/08/21 03:18:38;;;;;;;0.00;0.00;;;21.40;65.20;;;;;;5065784;28;20313;-70
2021/08/21 03:21:05;;;;;;;0.00;0.00;;;21.40;65.10;;;;;;5070829;28;20230;-70
2021/08/21 03:23:32;;;;;;;0.10;0.10;;;21.40;65.20;;;;;;5064059;28;20251;-70
2021/08/21 03:25:59;;;;;;;0.00;0.00;;;21.40;65.30;;;;;;5065472;28;20221;-70
2021/08/21 03:28:27;;;;;;;3.40;0.53;;;21.40;65.30;;;;;;5063661;28;20552;-70
2021/08/21 03:30:53;;;;;;;0.10;0.10;;;21.40;65.60;;;;;;5062744;28;20280;-70
2021/08/21 03:33:22;;;;;;;0.00;0.00;;;21.30;66.10;;;;;;5065385;28;20252;-70
2021/08/21 03:35:49;;;;;;;0.10;0.10;;;21.20;67.00;;;;;;5063153;28;20547;-70
2021/08/21 03:38:16;;;;;;;0.03;0.03;;;21.20;66.40;;;;;;5062144;28;20291;-70
2021/08/21 03:40:43;;;;;;;0.10;0.10;;;21.20;66.50;;;;;;5064619;28;20229;-70
2021/08/21 03:43:11;;;;;;;0.00;0.00;;;21.20;66.90;;;;;;5064876;28;20290;-70
2021/08/21 03:45:40;;;;;;;0.03;0.03;;;21.10;67.30;;;;;;5060973;28;20218;-70
2021/08/21 03:48:09;;;;;;;0.10;0.10;;;21.10;67.30;;;;;;5070980;28;20221;-70
2021/08/21 03:50:36;;;;;;;0.00;0.00;;;21.10;67.30;;;;;;5063630;28;20229;-70
2021/08/21 03:53:03;;;;;;;0.17;0.17;;;21.10;67.30;;;;;;5061239;28;20219;-70
2021/08/21 03:55:31;;;;;;;0.10;0.10;;;21.10;67.90;;;;;;5064496;28;20689;-70
2021/08/21 03:57:58;;;;;;;0.00;0.00;;;21.00;67.80;;;;;;5063869;28;20221;-70
2021/08/21 04:00:25;;;;;;;0.10;0.10;;;20.90;67.60;;;;;;5061718;28;20238;-70
2021/08/21 04:02:53;;;;;;;0.10;0.10;;;20.90;67.60;;;;;;5064068;28;20209;-70
2021/08/21 04:05:20;;;;;;;0.00;0.00;;;20.90;67.80;;;;;;5071786;28;20271;-70
2021/08/21 04:07:47;;;;;;;0.00;0.00;;;20.90;68.50;;;;;;5061518;28;20210;-70
2021/08/21 04:10:14;;;;;;;0.00;0.00;;;20.80;68.40;;;;;;5070274;28;20214;-70
2021/08/21 04:12:41;;;;;;;0.10;0.10;;;20.90;68.40;;;;;;5063791;28;20295;-70
2021/08/21 04:15:09;;;;;;;0.10;0.10;;;20.90;68.50;;;;;;5060626;28;20383;-70
2021/08/21 04:17:36;;;;;;;0.00;0.00;;;20.90;68.70;;;;;;5063350;28;20217;-70
2021/08/21 04:20:04;;;;;;;0.00;0.00;;;20.90;68.70;;;;;;5063804;28;20315;-70
2021/08/21 04:22:31;;;;;;;0.10;0.10;;;20.90;68.60;;;;;;5061196;28;20222;-70
2021/08/21 04:24:58;;;;;;;0.10;0.10;;;20.90;68.50;;;;;;5069720;28;20210;-70
2021/08/21 04:27:25;;;;;;;0.07;0.07;;;20.90;68.30;;;;;;5064105;28;20592;-70
2021/08/21 04:29:52;;;;;;;0.10;0.10;;;20.90;68.10;;;;;;5064234;28;20271;-70
2021/08/21 04:32:19;;;;;;;0.10;0.10;;;20.90;67.90;;;;;;5061805;28;20303;-70
2021/08/21 04:34:46;;;;;;;0.10;0.10;;;20.90;67.80;;;;;;5061573;28;20225;-70
2021/08/21 04:37:14;;;;;;;0.10;0.10;;;20.90;67.60;;;;;;5052125;28;20229;-70
2021/08/21 04:39:40;;;;;;;0.10;0.10;;;20.80;66.80;;;;;;5052746;28;20221;-70
2021/08/21 04:42:07;;;;;;;0.10;0.10;;;20.80;66.80;;;;;;5062899;28;20209;-70
2021/08/21 04:44:34;;;;;;;0.10;0.10;;;20.80;66.70;;;;;;5061845;28;20218;-70
2021/08/21 04:47:02;;;;;;;0.00;0.00;;;20.80;66.50;;;;;;5063579;28;20206;-70
2021/08/21 04:49:29;;;;;;;0.00;0.00;;;20.80;66.50;;;;;;5060106;28;20251;-70
2021/08/21 04:51:56;;;;;;;0.00;0.00;;;20.90;66.90;;;;;;5063156;28;20569;-70
2021/08/21 04:54:23;;;;;;;0.10;0.10;;;20.90;66.80;;;;;;5062316;28;20218;-70
2021/08/21 04:56:50;;;;;;;0.00;0.00;;;21.00;67.40;;;;;;5060506;28;20229;-70
2021/08/21 04:59:17;;;;;;;0.00;0.00;;;21.10;66.70;;;;;;5063225;28;20225;-70
2021/08/21 05:01:44;;;;;;;0.00;0.00;;;21.10;66.50;;;;;;5062105;28;20244;-70
2021/08/21 05:04:11;;;;;;;0.00;0.00;;;21.20;66.20;;;;;;5060577;28;20306;-70
2021/08/21 05:06:39;;;;;;;0.53;0.53;;;21.30;65.80;;;;;;5062730;28;20221;-70
2021/08/21 05:09:06;;;;;;;0.10;0.10;;;21.40;65.60;;;;;;5062938;28;20393;-70
2021/08/21 05:11:33;;;;;;;0.00;0.00;;;21.40;65.40;;;;;;5064868;28;20717;-70
2021/08/21 05:14:00;;;;;;;0.10;0.10;;;21.50;65.30;;;;;;5061903;28;20305;-70
2021/08/21 05:16:27;;;;;;;0.00;0.00;;;21.60;65.10;;;;;;5060930;28;20210;-70
2021/08/21 05:18:58;;;;;;;0.00;0.00;;;21.70;65.10;;;;;;5063255;28;20296;-70
2021/08/21 05:21:28;;;;;;;0.10;0.10;;;21.80;65.30;;;;;;5061824;28;20483;-70
2021/08/21 05:23:56;;;;;;;0.10;0.10;;;21.90;65.50;;;;;;5060617;28;20222;-70
2021/08/21 05:26:24;;;;;;;0.00;0.00;;;22.00;65.60;;;;;;5068968;28;20220;-70
2021/08/21 05:28:51;;;;;;;0.00;0.00;;;22.30;65.70;;;;;;5062679;28;20697;-70
2021/08/21 05:31:19;;;;;;;0.00;0.00;;;22.70;65.20;;;;;;5059336;28;20215;-70
2021/08/21 05:33:46;;;;;;;0.00;0.00;;;23.00;64.60;;;;;;5061855;28;20591;-70
2021/08/21 05:36:13;;;;;;;0.00;0.00;;;23.40;63.90;;;;;;5062333;28;20213;-70
2021/08/21 05:38:40;;;;;;;2.00;1.90;;;23.70;63.40;;;;;;5060410;28;20284;-70
2021/08/21 05:41:07;;;;;;;0.10;0.10;;;24.00;62.90;;;;;;5061590;28;20237;-70
2021/08/21 05:43:34;;;;;;;0.00;0.00;;;24.20;62.60;;;;;;5063107;28;20209;-70
2021/08/21 05:46:01;;;;;;;0.10;0.10;;;24.20;62.50;;;;;;5060665;28;20221;-70
2021/08/21 05:48:28;;;;;;;0.00;0.00;;;24.20;62.50;;;;;;5061735;28;20247;-70
2021/08/21 05:50:55;;;;;;;0.10;0.10;;;24.30;62.50;;;;;;5062462;28;20643;-70
2021/08/21 05:53:22;;;;;;;0.00;0.00;;;24.30;62.40;;;;;;5063081;28;20217;-70
2021/08/21 05:55:49;;;;;;;0.20;0.20;;;24.40;62.40;;;;;;5061133;28;20279;-70
2021/08/21 05:58:16;;;;;;;0.00;0.00;;;24.50;62.30;;;;;;5060409;28;20214;-70
2021/08/21 06:00:43;;;;;;;0.00;0.00;;;24.50;62.20;;;;;;5059767;28;20234;-70
2021/08/21 06:03:10;;;;;;;0.00;0.00;;;24.60;61.90;;;;;;5061613;28;20636;-70
2021/08/21 06:05:41;;;;;;;0.10;0.10;;;24.60;61.50;;;;;;5062557;28;20278;-70
2021/08/21 06:08:08;;;;;;;0.07;0.07;;;24.70;61.50;;;;;;5063645;28;20214;-70
2021/08/21 06:10:35;;;;;;;0.23;0.23;;;24.80;61.20;;;;;;5071243;28;20222;-70
2021/08/21 06:13:03;;;;;;;0.20;0.20;;;24.90;60.80;;;;;;5074006;28;20213;-70
2021/08/21 06:15:29;;;;;;;0.00;0.00;;;25.00;60.50;;;;;;5064671;28;20222;-70
2021/08/21 06:17:56;;;;;;;0.00;0.00;;;25.20;60.30;;;;;;5064667;28;20621;-71
2021/08/21 06:20:24;;;;;;;0.30;0.30;;;25.30;60.00;;;;;;5073440;28;20299;-70
2021/08/21 06:22:51;;;;;;;0.10;0.10;;;25.40;59.60;;;;;;5064942;28;20210;-70
2021/08/21 06:25:18;;;;;;;0.00;0.00;;;25.50;59.30;;;;;;5064208;28;20210;-70
2021/08/21 06:27:45;;;;;;;0.10;0.10;;;25.70;59.00;;;;;;5066695;28;20210;-70
2021/08/21 06:30:13;;;;;;;0.00;0.00;;;25.80;58.70;;;;;;5064792;28;20613;-70
2021/08/21 06:32:40;;;;;;;4.47;2.73;;;25.90;58.40;;;;;;5063580;28;20684;-70
2021/08/21 06:35:08;;;;;;;0.00;0.00;;;26.10;57.90;;;;;;5066564;28;20697;-70
2021/08/21 06:37:34;;;;;;;0.00;0.00;;;26.10;57.70;;;;;;5072600;28;20690;-70
2021/08/21 06:40:02;;;;;;;0.00;0.00;;;26.30;57.50;;;;;;5062643;28;20215;-70
2021/08/21 06:42:29;;;;;;;0.00;0.00;;;26.50;57.10;;;;;;5064268;28;20679;-70
2021/08/21 06:44:56;;;;;;;0.00;0.00;;;26.70;56.90;;;;;;5064851;28;20214;-70
2021/08/21 06:47:23;;;;;;;0.00;0.00;;;26.80;56.50;;;;;;5067673;28;20217;-70
2021/08/21 06:49:50;;;;;;;0.10;0.10;;;27.00;56.10;;;;;;5063823;28;20226;-70
2021/08/21 06:52:17;;;;;;;0.10;0.10;;;27.20;55.70;;;;;;5064289;28;20662;-71
2021/08/21 06:54:44;;;;;;;0.30;0.30;;;27.30;55.40;;;;;;5066085;28;20213;-71
2021/08/21 06:57:11;;;;;;;0.00;0.00;;;27.50;54.90;;;;;;5071184;28;20218;-70
2021/08/21 06:59:38;;;;;;;0.00;0.00;;;27.60;54.60;;;;;;5066154;28;20221;-70
2021/08/21 07:02:05;;;;;;;0.00;0.00;;;27.70;54.40;;;;;;5062983;28;20233;-70
2021/08/21 07:04:32;;;;;;;0.00;0.00;;;27.90;53.90;;;;;;5064655;28;20206;-70
2021/08/21 07:06:59;;;;;;;0.00;0.00;;;28.00;53.40;;;;;;5064737;28;20316;-70
2021/08/21 07:09:26;;;;;;;0.00;0.00;;;28.20;52.30;;;;;;5063029;28;20666;-70
2021/08/21 07:11:53;;;;;;;0.00;0.00;;;28.20;52.30;;;;;;5064826;28;20689;-70
2021/08/21 07:14:20;;;;;;;0.00;0.00;;;28.30;52.00;;;;;;5072819;28;20218;-70
2021/08/21 07:16:47;;;;;;;0.00;0.00;;;28.50;51.90;;;;;;5062571;28;20226;-70
2021/08/21 07:19:14;;;;;;;0.00;0.00;;;28.50;51.20;;;;;;5065144;28;20213;-70
2021/08/21 07:21:41;;;;;;;0.13;0.13;;;28.60;50.90;;;;;;5064351;28;20615;-70
2021/08/21 07:24:08;;;;;;;0.20;0.20;;;28.80;50.60;;;;;;5062031;28;20215;-70
2021/08/21 07:26:35;;;;;;;0.30;0.30;;;28.90;49.80;;;;;;5063554;28;20267;-70
2021/08/21 07:29:02;;;;;;;0.00;0.00;;;28.80;49.50;;;;;;5064518;28;20640;-71
2021/08/21 07:31:29;;;;;;;0.00;0.00;;;28.90;49.90;;;;;;5062094;28;20214;-71
2021/08/21 07:33:57;;;;;;;0.00;0.00;;;29.00;49.40;;;;;;5064229;28;20253;-71
2021/08/21 07:36:24;;;;;;;0.00;0.00;;;29.00;49.60;;;;;;5064562;28;20667;-71
2021/08/21 07:38:52;;;;;;;0.10;0.10;;;29.00;49.00;;;;;;5062465;28;20279;-71
2021/08/21 07:41:19;;;;;;;0.30;0.30;;;29.10;49.10;;;;;;5063926;28;20313;-71
2021/08/21 07:43:47;;;;;;;0.00;0.00;;;29.30;49.20;;;;;;5066613;28;20217;-71
2021/08/21 07:46:14;;;;;;;0.00;0.00;;;29.60;48.90;;;;;;5064470;28;20209;-71
2021/08/21 07:48:41;;;;;;;0.10;0.10;;;29.90;48.70;;;;;;5063126;28;20210;-71
2021/08/21 07:51:08;;;;;;;0.00;0.00;;;30.20;48.50;;;;;;5064405;28;20625;-71
2021/08/21 07:53:35;;;;;;;0.07;0.07;;;30.40;47.90;;;;;;5061492;28;20214;-71
2021/08/21 07:56:08;;;;;;;0.10;0.10;;;30.50;46.90;;;;;;5063062;28;20214;-71
2021/08/21 07:58:35;;;;;;;0.00;0.00;;;30.60;46.90;;;;;;5072009;28;20687;-71
2021/08/21 08:01:02;;;;;;;0.00;0.00;;;30.70;46.70;;;;;;5062602;28;20295;-71
2021/08/21 08:03:29;;;;;;;0.00;0.00;;;30.90;46.80;;;;;;5061479;28;20218;-71
2021/08/21 08:05:56;;;;;;;0.00;0.00;;;31.00;46.50;;;;;;5071434;28;20218;-71
2021/08/21 08:08:23;;;;;;;0.00;0.00;;;31.10;46.40;;;;;;5063064;28;20701;-71
2021/08/21 08:10:51;;;;;;;0.00;0.00;;;31.10;45.00;;;;;;5061989;28;20604;-71
2021/08/21 08:13:19;;;;;;;0.00;0.00;;;31.20;45.20;;;;;;5065642;28;20214;-71
2021/08/21 08:15:46;;;;;;;0.13;0.13;;;31.30;44.70;;;;;;5062015;28;20880;-71
2021/08/21 08:18:13;;;;;;;0.00;0.00;;;31.30;44.60;;;;;;5064377;28;20278;-71
2021/08/21 08:20:39;;;;;;;0.00;0.00;;;31.30;44.50;;;;;;5063834;28;20225;-71
2021/08/21 08:23:07;;;;;;;0.00;0.00;;;31.40;44.10;;;;;;5063029;28;20206;-71
2021/08/21 08:25:34;;;;;;;0.00;0.00;;;31.50;44.20;;;;;;5060408;28;20320;-71
2021/08/21 08:28:01;;;;;;;0.17;0.17;;;31.70;44.20;;;;;;5061935;28;20647;-71
2021/08/21 08:30:28;;;;;;;0.10;0.10;;;31.80;43.40;;;;;;5061648;28;20213;-71
2021/08/21 08:32:55;;;;;;;0.00;0.00;;;31.80;43.00;;;;;;5071687;28;20245;-71
2021/08/21 08:35:22;;;;;;;0.00;0.00;;;31.80;43.10;;;;;;5061292;28;20206;-71
2021/08/21 08:37:49;;;;;;;0.37;0.37;;;31.80;43.00;;;;;;5061690;28;20287;-71
2021/08/21 08:40:17;;;;;;;0.00;0.00;;;31.90;42.70;;;;;;5063704;28;20228;-71
2021/08/21 08:42:44;;;;;;;0.00;0.00;;;32.00;42.90;;;;;;5069462;28;20459;-71
2021/08/21 08:45:13;;;;;;;0.10;0.10;;;32.30;43.00;;;;;;5061795;28;20214;-71
2021/08/21 08:47:41;;;;;;;0.30;0.30;;;32.50;42.80;;;;;;5070561;28;20220;-71
2021/08/21 08:50:11;;;;;;;0.00;0.00;;;32.70;43.10;;;;;;5069960;28;20564;-71
2021/08/21 08:52:39;;;;;;;1.27;0.73;;;32.90;40.90;;;;;;5060929;28;20233;-71
2021/08/21 08:55:08;;;;;;;0.07;0.07;;;33.00;41.20;;;;;;5062509;28;20222;-71
2021/08/21 08:57:46;;;;;;;0.00;0.00;;;33.20;39.00;;;;;;5062726;28;20651;-71
2021/08/21 09:00:15;;;;;;;0.20;0.20;;;33.00;39.60;;;;;;5061763;28;20672;-71
2021/08/21 09:02:45;;;;;;;0.10;0.10;;;33.00;39.90;;;;;;5059798;28;20547;-71
2021/08/21 09:05:15;;;;;;;0.00;0.00;;;33.20;40.00;;;;;;5065999;28;20217;-71
2021/08/21 09:07:52;;;;;;;0.10;0.10;;;33.30;39.80;;;;;;5060572;28;20218;-71
2021/08/21 09:10:29;;;;;;;0.00;0.00;;;33.60;37.90;;;;;;5061690;28;20225;-71
2021/08/21 09:13:16;;;;;;;0.00;0.00;;;33.60;38.70;;;;;;5060640;28;20621;-71
2021/08/21 09:15:52;;;;;;;0.00;0.00;;;33.70;38.30;;;;;;5063133;28;20235;-71
2021/08/21 09:18:19;;;;;;;0.00;0.00;;;33.80;38.40;;;;;;5063474;28;20220;-71
2021/08/21 09:21:06;;;;;;;0.50;0.40;;;33.80;37.90;;;;;;5051558;28;20222;-71
2021/08/21 09:23:33;;;;;;;0.13;0.13;;;33.90;38.20;;;;;;5051759;28;20206;-71
2021/08/21 09:26:12;;;;;;;0.00;0.00;;;34.10;38.00;;;;;;5059018;28;20228;-71
2021/08/21 09:28:44;;;;;;;0.00;0.00;;;34.30;37.70;;;;;;5060445;28;20562;-71
2021/08/21 09:31:16;;;;;;;0.00;0.00;;;34.50;36.90;;;;;;5060248;28;20215;-70
2021/08/21 09:33:54;;;;;;;0.00;0.00;;;34.40;35.20;;;;;;5062142;28;20241;-70
2021/08/21 09:36:28;;;;;;;0.00;0.00;;;34.30;36.10;;;;;;5069630;28;20213;-70
2021/08/21 09:38:55;;;;;;;0.00;0.00;;;34.40;36.20;;;;;;5062697;28;20273;-70
2021/08/21 09:41:23;;;;;;;0.00;0.00;;;34.60;35.90;;;;;;5058965;28;20292;-70
2021/08/21 09:44:05;;;;;;;0.00;0.00;;;34.70;36.00;;;;;;5069615;28;20279;-70
2021/08/21 09:46:32;;;;;;;0.00;0.00;;;34.80;35.20;;;;;;5062700;28;20213;-70
2021/08/21 09:49:11;;;;;;;0.00;0.00;;;34.90;35.50;;;;;;5062445;28;20209;-70
2021/08/21 09:51:46;;;;;;;0.00;0.00;;;35.10;35.70;;;;;;5061165;28;20218;-70
2021/08/21 09:54:18;;;;;;;0.00;0.00;;;35.30;34.10;;;;;;5060177;28;20210;-70
2021/08/21 09:56:54;;;;;;;0.00;0.00;;;35.20;33.50;;;;;;5060820;28;20218;-70
2021/08/21 09:59:37;;;;;;;0.00;0.00;;;35.10;34.30;;;;;;5060619;28;20507;-70
2021/08/21 10:02:08;;;;;;;0.30;0.30;;;35.10;34.50;;;;;;5060310;28;20246;-70
2021/08/21 10:04:35;;;;;;;0.10;0.10;;;35.30;34.50;;;;;;5061368;28;20263;-70
2021/08/21 10:07:05;;;;;;;0.10;0.10;;;35.40;34.50;;;;;;5067617;28;20218;-71
2021/08/21 10:09:35;;;;;;;0.00;0.00;;;35.40;34.50;;;;;;5060124;28;20233;-71
2021/08/21 10:12:03;;;;;;;0.00;0.00;;;35.50;33.60;;;;;;5059644;28;20643;-71
2021/08/21 10:14:31;;;;;;;0.20;0.20;;;35.50;34.00;;;;;;5062440;28;20217;-71
2021/08/21 10:16:58;;;;;;;0.00;0.00;;;35.30;33.60;;;;;;5061803;28;20218;-71
2021/08/21 10:19:26;;;;;;;0.10;0.10;;;35.20;33.70;;;;;;5060228;28;20213;-71
2021/08/21 10:21:58;;;;;;;0.00;0.00;;;35.30;34.10;;;;;;5061208;28;20675;-70
2021/08/21 10:24:36;;;;;;;0.00;0.00;;;35.30;33.80;;;;;;5062670;28;20248;-70
2021/08/21 10:27:08;;;;;;;0.10;0.10;;;35.50;33.90;;;;;;5061528;28;20205;-70
2021/08/21 10:29:36;;;;;;;0.10;0.10;;;35.60;33.10;;;;;;5051567;28;20214;-70
2021/08/21 10:32:04;;;;;;;0.00;0.00;;;35.60;33.00;;;;;;5050690;28;20226;-70
2021/08/21 10:34:54;;;;;;;0.20;0.20;;;35.50;33.00;;;;;;5058772;28;20217;-70
2021/08/21 10:37:41;;;;;;;0.00;0.00;;;35.50;34.00;;;;;;5069066;28;20210;-70
2021/08/21 10:40:27;;;;;;;0.17;0.17;;;35.60;33.60;;;;;;5064243;28;20699;-70
2021/08/21 10:42:56;;;;;;;0.00;0.00;;;35.80;33.00;;;;;;5059218;28;20226;-70
2021/08/21 10:45:42;;;;;;;0.00;0.00;;;35.90;33.10;;;;;;5069330;28;20217;-70
2021/08/21 10:48:36;;;;;;;0.20;0.20;;;36.00;33.10;;;;;;5063301;28;20220;-70
2021/08/21 10:51:26;;;;;;;0.00;0.00;;;36.20;33.00;;;;;;5061137;28;20206;-71
2021/08/21 10:53:53;;;;;;;0.00;0.00;;;36.30;32.90;;;;;;5065440;28;20209;-71
2021/08/21 10:56:35;;;;;;;0.00;0.00;;;36.40;33.00;;;;;;5072567;28;20552;-70
2021/08/21 10:59:03;;;;;;;0.00;0.00;;;36.60;33.20;;;;;;5064248;28;20690;-70
2021/08/21 11:01:30;;;;;;;0.10;0.10;;;36.70;33.10;;;;;;5063480;28;20292;-70
2021/08/21 11:03:57;;;;;;;0.10;0.10;;;36.80;33.00;;;;;;5065869;28;20300;-70
2021/08/21 11:06:40;;;;;;;4.37;0.63;;;36.80;33.20;;;;;;5063747;28;20222;-71
2021/08/21 11:09:10;;;;;;;0.07;0.07;;;36.90;32.90;;;;;;5062836;28;20225;-71
2021/08/21 11:11:47;;;;;;;0.00;0.00;;;36.90;32.60;;;;;;5063280;28;20211;-71
2021/08/21 11:14:20;;;;;;;0.10;0.10;;;36.90;32.30;;;;;;5064420;28;20275;-71
2021/08/21 11:16:54;;;;;;;0.93;0.93;;;36.80;31.00;;;;;;5062610;28;20207;-71
2021/08/21 11:19:45;;;;;;;0.00;0.00;;;36.50;31.60;;;;;;5064439;28;20299;-71
2021/08/21 11:22:17;;;;;;;0.10;0.10;;;36.20;32.10;;;;;;5065691;28;20723;-71
2021/08/21 11:24:53;;;;;;;0.00;0.00;;;36.10;32.40;;;;;;5079478;28;20604;-71
2021/08/21 11:27:30;;;;;;;0.00;0.00;;;36.10;32.40;;;;;;5062355;28;20640;-71
2021/08/21 11:30:21;;;;;;;0.10;0.10;;;36.30;32.70;;;;;;5064325;28;20210;-71
2021/08/21 11:32:47;;;;;;;0.10;0.10;;;36.50;32.80;;;;;;5065425;28;20249;-71
2021/08/21 11:35:32;;;;;;;0.00;0.00;;;36.50;32.50;;;;;;5063101;28;20226;-71
2021/08/21 11:38:02;;;;;;;0.10;0.10;;;36.40;32.50;;;;;;5063044;28;20213;-71
2021/08/21 11:40:35;;;;;;;0.00;0.00;;;36.10;32.70;;;;;;5063003;28;20214;-71
2021/08/21 11:43:03;;;;;;;0.00;0.00;;;35.90;33.20;;;;;;5065127;28;20230;-71
2021/08/21 11:45:31;;;;;;;0.00;0.00;;;35.90;33.10;;;;;;5064306;28;20210;-71
2021/08/21 11:47:58;;;;;;;0.10;0.10;;;35.90;32.70;;;;;;5064828;28;20203;-71
2021/08/21 11:50:31;;;;;;;0.00;0.00;;;35.70;32.90;;;;;;5063898;28;20275;-71
2021/08/21 11:53:07;;;;;;;0.00;0.00;;;35.60;33.30;;;;;;5064920;28;20648;-71
2021/08/21 11:55:36;;;;;;;0.00;0.00;;;35.70;33.40;;;;;;5071439;28;20305;-71
2021/08/21 11:58:06;;;;;;;0.13;0.13;;;35.70;33.60;;;;;;5062111;28;20233;-71
2021/08/21 12:00:35;;;;;;;0.13;0.13;;;35.70;33.00;;;;;;5063761;28;20602;-71
2021/08/21 12:03:06;;;;;;;0.00;0.00;;;35.70;33.00;;;;;;5064631;28;20584;-71
2021/08/21 12:05:43;;;;;;;0.00;0.00;;;35.90;33.40;;;;;;5061060;28;20217;-71
2021/08/21 12:08:24;;;;;;;0.00;0.00;;;36.00;32.90;;;;;;5061645;28;20213;-71
2021/08/21 12:11:03;;;;;;;1.27;1.20;;;36.00;32.80;;;;;;5064100;28;20205;-71
2021/08/21 12:13:35;;;;;;;0.07;0.07;;;36.00;33.10;;;;;;5063929;28;20278;-71
2021/08/21 12:16:16;;;;;;;0.00;0.00;;;35.90;33.10;;;;;;5052859;28;20558;-71
2021/08/21 12:18:46;;;;;;;0.83;0.83;;;35.90;33.20;;;;;;5053092;28;20214;-71
2021/08/21 12:21:21;;;;;;;0.10;0.10;;;35.80;33.20;;;;;;5060274;28;20214;-71
2021/08/21 12:23:50;;;;;;;0.13;0.13;;;35.70;33.50;;;;;;5064167;28;20318;-71
2021/08/21 12:26:33;;;;;;;0.10;0.10;;;35.70;33.50;;;;;;5070682;28;20843;-71
2021/08/21 12:29:02;;;;;;;0.30;0.30;;;35.70;33.50;;;;;;5062815;28;20225;-71
2021/08/21 12:31:40;;;;;;;0.07;0.07;;;35.80;33.50;;;;;;5061219;28;20226;-71
2021/08/21 12:34:10;;;;;;;0.00;0.00;;;35.70;33.90;;;;;;5062766;28;20237;-71
2021/08/21 12:36:41;;;;;;;0.00;0.00;;;35.80;34.00;;;;;;5068538;28;20252;-71
2021/08/21 12:39:13;;;;;;;0.07;0.07;;;35.90;33.60;;;;;;5062711;28;20558;-71
2021/08/21 12:42:20;;;;;;;0.20;0.20;;;36.00;33.00;;;;;;5064500;28;20201;-71
2021/08/21 12:44:48;;;;;;;0.00;0.00;;;35.80;33.10;;;;;;5054031;28;20213;-71
2021/08/21 12:47:18;;;;;;;0.00;0.00;;;35.70;33.50;;;;;;5066887;28;20217;-71
2021/08/21 12:49:48;;;;;;;0.00;0.00;;;35.80;33.90;;;;;;5061991;28;20221;-71
2021/08/21 12:52:22;;;;;;;0.00;0.00;;;35.80;33.40;;;;;;5070350;28;20805;-71
2021/08/21 12:55:04;;;;;;;0.10;0.10;;;35.80;33.10;;;;;;5063441;28;20298;-71
2021/08/21 12:57:34;;;;;;;0.10;0.10;;;35.60;33.00;;;;;;5062706;28;20217;-71
2021/08/21 13:00:07;;;;;;;0.00;0.00;;;35.50;33.40;;;;;;5059982;28;20276;-70